sensor_id;sensor_type;location;lat;lon;timestamp;P1;durP1;ratioP1;P2;durP2;ratioP2
48975;SDS011;34791;52.752;8.346;2023-09-19T00:02:17;8.20;;;3.55;;
48975;SDS011;34791;52.752;8.346;2023-09-19T00:04:43;9.95;;;4.00;;
48975;SDS011;34791;52.752;8.346;2023-09-19T00:07:08;7.35;;;3.50;;
48975;SDS011;34791;52.752;8.346;2023-09-19T00:09:34;9.70;;;3.60;;
48975;SDS011;34791;52.752;8.346;2023-09-19T00:12:03;7.68;;;3.40;;
48975;SDS011;34791;52.752;8.346;2023-09-19T00:14:29;7.30;;;2.92;;
48975;SDS011;34791;52.752;8.346;2023-09-19T00:16:54;6.72;;;3.03;;
48975;SDS011;34791;52.752;8.346;2023-09-19T00:19:19;8.30;;;3.00;;
48975;SDS011;34791;52.752;8.346;2023-09-19T00:21:45;10.75;;;3.38;;
48975;SDS011;34791;52.752;8.346;2023-09-19T00:24:12;8.02;;;2.70;;
48975;SDS011;34791;52.752;8.346;2023-09-19T00:26:37;8.65;;;3.30;;
48975;SDS011;34791;52.752;8.346;2023-09-19T00:29:03;7.63;;;2.67;;
48975;SDS011;34791;52.752;8.346;2023-09-19T00:31:28;8.10;;;3.10;;
48975;SDS011;34791;52.752;8.346;2023-09-19T00:33:55;7.35;;;3.33;;
48975;SDS011;34791;52.752;8.346;2023-09-19T00:36:22;8.73;;;2.97;;
48975;SDS011;34791;52.752;8.346;2023-09-19T00:38:48;11.80;;;3.25;;
48975;SDS011;34791;52.752;8.346;2023-09-19T00:41:13;10.20;;;3.17;;
48975;SDS011;34791;52.752;8.346;2023-09-19T00:43:38;10.73;;;3.30;;
48975;SDS011;34791;52.752;8.346;2023-09-19T00:46:05;11.15;;;3.42;;
48975;SDS011;34791;52.752;8.346;2023-09-19T00:48:31;8.40;;;3.13;;
48975;SDS011;34791;52.752;8.346;2023-09-19T00:51:02;9.80;;;2.90;;
48975;SDS011;34791;52.752;8.346;2023-09-19T00:53:28;9.90;;;2.80;;
48975;SDS011;34791;52.752;8.346;2023-09-19T00:55:55;9.38;;;2.83;;
48975;SDS011;34791;52.752;8.346;2023-09-19T00:58:21;9.45;;;3.10;;
48975;SDS011;34791;52.752;8.346;2023-09-19T01:03:49;10.00;;;2.72;;
48975;SDS011;34791;52.752;8.346;2023-09-19T01:06:14;9.18;;;2.88;;
48975;SDS011;34791;52.752;8.346;2023-09-19T01:08:40;7.68;;;2.50;;
48975;SDS011;34791;52.752;8.346;2023-09-19T01:13:41;7.93;;;2.00;;
48975;SDS011;34791;52.752;8.346;2023-09-19T01:16:27;4.63;;;1.50;;
48975;SDS011;34791;52.752;8.346;2023-09-19T01:19:11;4.13;;;1.52;;
48975;SDS011;34791;52.752;8.346;2023-09-19T01:21:51;3.35;;;1.35;;
48975;SDS011;34791;52.752;8.346;2023-09-19T01:24:31;4.32;;;1.15;;
48975;SDS011;34791;52.752;8.346;2023-09-19T01:32:04;3.53;;;1.25;;
48975;SDS011;34791;52.752;8.346;2023-09-19T01:37:14;4.43;;;1.40;;
48975;SDS011;34791;52.752;8.346;2023-09-19T01:39:40;3.90;;;1.00;;
48975;SDS011;34791;52.752;8.346;2023-09-19T01:42:09;5.32;;;1.35;;
48975;SDS011;34791;52.752;8.346;2023-09-19T01:44:49;3.15;;;1.00;;
48975;SDS011;34791;52.752;8.346;2023-09-19T01:47:23;4.38;;;1.15;;
48975;SDS011;34791;52.752;8.346;2023-09-19T01:52:31;6.57;;;1.30;;
48975;SDS011;34791;52.752;8.346;2023-09-19T01:55:04;7.60;;;1.20;;
48975;SDS011;34791;52.752;8.346;2023-09-19T01:57:35;3.55;;;1.05;;
48975;SDS011;34791;52.752;8.346;2023-09-19T02:00:03;7.00;;;1.30;;
48975;SDS011;34791;52.752;8.346;2023-09-19T02:02:33;4.50;;;1.05;;
48975;SDS011;34791;52.752;8.346;2023-09-19T02:04:58;5.03;;;1.40;;
48975;SDS011;34791;52.752;8.346;2023-09-19T02:07:23;5.90;;;1.40;;
48975;SDS011;34791;52.752;8.346;2023-09-19T02:09:49;9.32;;;1.98;;
48975;SDS011;34791;52.752;8.346;2023-09-19T02:12:14;4.45;;;1.42;;
48975;SDS011;34791;52.752;8.346;2023-09-19T02:14:40;6.28;;;1.70;;
48975;SDS011;34791;52.752;8.346;2023-09-19T02:17:05;8.20;;;1.58;;
48975;SDS011;34791;52.752;8.346;2023-09-19T02:19:36;5.50;;;1.57;;
48975;SDS011;34791;52.752;8.346;2023-09-19T02:22:03;5.78;;;1.50;;
48975;SDS011;34791;52.752;8.346;2023-09-19T02:24:32;8.15;;;1.52;;
48975;SDS011;34791;52.752;8.346;2023-09-19T02:26:57;7.03;;;1.70;;
48975;SDS011;34791;52.752;8.346;2023-09-19T02:29:24;8.50;;;1.92;;
48975;SDS011;34791;52.752;8.346;2023-09-19T02:31:49;7.65;;;1.95;;
48975;SDS011;34791;52.752;8.346;2023-09-19T02:34:15;10.73;;;2.08;;
48975;SDS011;34791;52.752;8.346;2023-09-19T02:36:41;8.35;;;2.17;;
48975;SDS011;34791;52.752;8.346;2023-09-19T02:39:09;10.02;;;2.30;;
48975;SDS011;34791;52.752;8.346;2023-09-19T02:41:36;8.68;;;2.60;;
48975;SDS011;34791;52.752;8.346;2023-09-19T02:44:01;6.97;;;1.80;;
48975;SDS011;34791;52.752;8.346;2023-09-19T02:46:27;8.32;;;2.22;;
48975;SDS011;34791;52.752;8.346;2023-09-19T02:48:52;7.15;;;2.10;;
48975;SDS011;34791;52.752;8.346;2023-09-19T02:51:18;11.02;;;2.70;;
48975;SDS011;34791;52.752;8.346;2023-09-19T02:53:44;9.13;;;2.60;;
48975;SDS011;34791;52.752;8.346;2023-09-19T02:56:09;10.07;;;2.58;;
48975;SDS011;34791;52.752;8.346;2023-09-19T02:58:37;13.35;;;2.67;;
48975;SDS011;34791;52.752;8.346;2023-09-19T03:01:09;19.70;;;3.45;;
48975;SDS011;34791;52.752;8.346;2023-09-19T03:03:36;9.65;;;2.20;;
48975;SDS011;34791;52.752;8.346;2023-09-19T03:06:04;8.18;;;1.90;;
48975;SDS011;34791;52.752;8.346;2023-09-19T03:08:30;12.75;;;2.70;;
48975;SDS011;34791;52.752;8.346;2023-09-19T03:10:56;8.70;;;2.28;;
48975;SDS011;34791;52.752;8.346;2023-09-19T03:13:21;10.02;;;2.30;;
48975;SDS011;34791;52.752;8.346;2023-09-19T03:15:46;12.32;;;2.28;;
48975;SDS011;34791;52.752;8.346;2023-09-19T03:18:12;8.05;;;2.35;;
48975;SDS011;34791;52.752;8.346;2023-09-19T03:20:38;9.48;;;2.03;;
48975;SDS011;34791;52.752;8.346;2023-09-19T03:23:03;8.70;;;2.38;;
48975;SDS011;34791;52.752;8.346;2023-09-19T03:25:31;8.57;;;2.45;;
48975;SDS011;34791;52.752;8.346;2023-09-19T03:27:56;8.23;;;2.08;;
48975;SDS011;34791;52.752;8.346;2023-09-19T03:30:23;9.10;;;2.20;;
48975;SDS011;34791;52.752;8.346;2023-09-19T03:32:48;10.65;;;2.25;;
48975;SDS011;34791;52.752;8.346;2023-09-19T03:35:15;11.02;;;2.65;;
48975;SDS011;34791;52.752;8.346;2023-09-19T03:37:40;9.00;;;2.17;;
48975;SDS011;34791;52.752;8.346;2023-09-19T03:40:07;8.13;;;1.90;;
48975;SDS011;34791;52.752;8.346;2023-09-19T03:42:32;8.15;;;2.05;;
48975;SDS011;34791;52.752;8.346;2023-09-19T03:44:57;8.45;;;2.03;;
48975;SDS011;34791;52.752;8.346;2023-09-19T03:47:24;8.48;;;2.45;;
48975;SDS011;34791;52.752;8.346;2023-09-19T03:49:50;11.23;;;3.00;;
48975;SDS011;34791;52.752;8.346;2023-09-19T03:52:15;11.45;;;2.88;;
48975;SDS011;34791;52.752;8.346;2023-09-19T03:54:41;15.00;;;3.30;;
48975;SDS011;34791;52.752;8.346;2023-09-19T03:57:06;12.07;;;3.08;;
48975;SDS011;34791;52.752;8.346;2023-09-19T03:59:31;11.18;;;2.67;;
48975;SDS011;34791;52.752;8.346;2023-09-19T04:01:57;11.32;;;2.70;;
48975;SDS011;34791;52.752;8.346;2023-09-19T04:04:23;18.13;;;3.03;;
48975;SDS011;34791;52.752;8.346;2023-09-19T04:06:50;13.90;;;3.60;;
48975;SDS011;34791;52.752;8.346;2023-09-19T04:09:15;15.23;;;3.28;;
48975;SDS011;34791;52.752;8.346;2023-09-19T04:11:40;11.90;;;3.03;;
48975;SDS011;34791;52.752;8.346;2023-09-19T04:14:06;9.48;;;2.42;;
48975;SDS011;34791;52.752;8.346;2023-09-19T04:16:31;8.57;;;2.17;;
48975;SDS011;34791;52.752;8.346;2023-09-19T04:18:56;9.02;;;2.80;;
48975;SDS011;34791;52.752;8.346;2023-09-19T04:21:21;12.65;;;2.63;;
48975;SDS011;34791;52.752;8.346;2023-09-19T04:23:46;11.43;;;3.00;;
48975;SDS011;34791;52.752;8.346;2023-09-19T04:26:12;13.07;;;3.08;;
48975;SDS011;34791;52.752;8.346;2023-09-19T04:28:37;8.88;;;2.20;;
48975;SDS011;34791;52.752;8.346;2023-09-19T04:31:03;11.65;;;2.13;;
48975;SDS011;34791;52.752;8.346;2023-09-19T04:33:28;12.32;;;2.40;;
48975;SDS011;34791;52.752;8.346;2023-09-19T04:35:54;10.07;;;2.47;;
48975;SDS011;34791;52.752;8.346;2023-09-19T04:38:20;8.57;;;2.08;;
48975;SDS011;34791;52.752;8.346;2023-09-19T04:40:45;9.20;;;2.42;;
48975;SDS011;34791;52.752;8.346;2023-09-19T04:43:10;7.03;;;2.33;;
48975;SDS011;34791;52.752;8.346;2023-09-19T04:45:36;8.50;;;1.45;;
48975;SDS011;34791;52.752;8.346;2023-09-19T04:48:03;6.80;;;2.20;;
48975;SDS011;34791;52.752;8.346;2023-09-19T04:50:28;9.85;;;2.53;;
48975;SDS011;34791;52.752;8.346;2023-09-19T04:52:54;9.85;;;2.45;;
48975;SDS011;34791;52.752;8.346;2023-09-19T04:55:19;9.27;;;2.50;;
48975;SDS011;34791;52.752;8.346;2023-09-19T04:57:49;9.75;;;2.75;;
48975;SDS011;34791;52.752;8.346;2023-09-19T05:00:15;12.68;;;3.20;;
48975;SDS011;34791;52.752;8.346;2023-09-19T05:02:42;12.93;;;3.28;;
48975;SDS011;34791;52.752;8.346;2023-09-19T05:05:08;13.52;;;3.33;;
48975;SDS011;34791;52.752;8.346;2023-09-19T05:07:33;12.98;;;3.55;;
48975;SDS011;34791;52.752;8.346;2023-09-19T05:09:59;12.02;;;3.85;;
48975;SDS011;34791;52.752;8.346;2023-09-19T05:12:24;10.88;;;3.25;;
48975;SDS011;34791;52.752;8.346;2023-09-19T05:14:50;13.45;;;3.72;;
48975;SDS011;34791;52.752;8.346;2023-09-19T05:17:16;12.43;;;3.47;;
48975;SDS011;34791;52.752;8.346;2023-09-19T05:19:42;13.77;;;3.38;;
48975;SDS011;34791;52.752;8.346;2023-09-19T05:22:07;17.50;;;3.22;;
48975;SDS011;34791;52.752;8.346;2023-09-19T05:24:32;12.20;;;3.85;;
48975;SDS011;34791;52.752;8.346;2023-09-19T05:26:57;10.27;;;3.22;;
48975;SDS011;34791;52.752;8.346;2023-09-19T05:29:23;12.13;;;3.53;;
48975;SDS011;34791;52.752;8.346;2023-09-19T05:31:48;13.73;;;2.78;;
48975;SDS011;34791;52.752;8.346;2023-09-19T05:34:14;15.82;;;2.97;;
48975;SDS011;34791;52.752;8.346;2023-09-19T05:36:40;13.13;;;3.30;;
48975;SDS011;34791;52.752;8.346;2023-09-19T05:39:05;10.13;;;2.42;;
48975;SDS011;34791;52.752;8.346;2023-09-19T05:41:34;13.52;;;2.53;;
48975;SDS011;34791;52.752;8.346;2023-09-19T05:44:05;15.60;;;3.15;;
48975;SDS011;34791;52.752;8.346;2023-09-19T05:46:32;13.05;;;2.50;;
48975;SDS011;34791;52.752;8.346;2023-09-19T05:48:57;10.68;;;2.50;;
48975;SDS011;34791;52.752;8.346;2023-09-19T05:51:22;11.63;;;2.28;;
48975;SDS011;34791;52.752;8.346;2023-09-19T05:53:48;12.63;;;2.35;;
48975;SDS011;34791;52.752;8.346;2023-09-19T05:56:13;13.63;;;2.65;;
48975;SDS011;34791;52.752;8.346;2023-09-19T05:58:40;12.13;;;2.63;;
48975;SDS011;34791;52.752;8.346;2023-09-19T06:01:07;7.72;;;1.90;;
48975;SDS011;34791;52.752;8.346;2023-09-19T06:03:34;8.50;;;2.20;;
48975;SDS011;34791;52.752;8.346;2023-09-19T06:06:00;12.10;;;1.80;;
48975;SDS011;34791;52.752;8.346;2023-09-19T06:08:25;10.48;;;2.60;;
48975;SDS011;34791;52.752;8.346;2023-09-19T06:10:51;12.50;;;2.40;;
48975;SDS011;34791;52.752;8.346;2023-09-19T06:13:17;14.82;;;2.63;;
48975;SDS011;34791;52.752;8.346;2023-09-19T06:15:43;15.07;;;3.08;;
48975;SDS011;34791;52.752;8.346;2023-09-19T06:18:10;11.38;;;2.30;;
48975;SDS011;34791;52.752;8.346;2023-09-19T06:20:38;13.98;;;2.33;;
48975;SDS011;34791;52.752;8.346;2023-09-19T06:23:09;11.80;;;2.47;;
48975;SDS011;34791;52.752;8.346;2023-09-19T06:25:35;8.10;;;1.90;;
48975;SDS011;34791;52.752;8.346;2023-09-19T06:28:00;10.85;;;1.88;;
48975;SDS011;34791;52.752;8.346;2023-09-19T06:30:30;8.43;;;1.90;;
48975;SDS011;34791;52.752;8.346;2023-09-19T06:32:59;10.68;;;2.33;;
48975;SDS011;34791;52.752;8.346;2023-09-19T06:35:24;11.27;;;1.98;;
48975;SDS011;34791;52.752;8.346;2023-09-19T06:37:51;10.50;;;1.98;;
48975;SDS011;34791;52.752;8.346;2023-09-19T06:40:17;7.43;;;1.83;;
48975;SDS011;34791;52.752;8.346;2023-09-19T06:42:46;12.40;;;2.10;;
48975;SDS011;34791;52.752;8.346;2023-09-19T06:45:12;11.80;;;2.35;;
48975;SDS011;34791;52.752;8.346;2023-09-19T06:47:38;8.43;;;1.55;;
48975;SDS011;34791;52.752;8.346;2023-09-19T06:50:04;10.75;;;2.17;;
48975;SDS011;34791;52.752;8.346;2023-09-19T06:52:30;12.02;;;2.35;;
48975;SDS011;34791;52.752;8.346;2023-09-19T06:54:57;7.95;;;1.77;;
48975;SDS011;34791;52.752;8.346;2023-09-19T06:57:22;8.80;;;2.13;;
48975;SDS011;34791;52.752;8.346;2023-09-19T06:59:47;9.50;;;2.22;;
48975;SDS011;34791;52.752;8.346;2023-09-19T07:02:13;10.65;;;2.00;;
48975;SDS011;34791;52.752;8.346;2023-09-19T07:04:38;9.15;;;2.40;;
48975;SDS011;34791;52.752;8.346;2023-09-19T07:07:04;7.70;;;1.52;;
48975;SDS011;34791;52.752;8.346;2023-09-19T07:09:29;9.73;;;1.67;;
48975;SDS011;34791;52.752;8.346;2023-09-19T07:11:54;7.13;;;1.65;;
48975;SDS011;34791;52.752;8.346;2023-09-19T07:14:19;9.70;;;1.38;;
48975;SDS011;34791;52.752;8.346;2023-09-19T07:16:45;9.40;;;1.55;;
48975;SDS011;34791;52.752;8.346;2023-09-19T07:19:10;11.40;;;2.00;;
48975;SDS011;34791;52.752;8.346;2023-09-19T07:21:36;5.80;;;1.75;;
48975;SDS011;34791;52.752;8.346;2023-09-19T07:24:02;8.20;;;1.48;;
48975;SDS011;34791;52.752;8.346;2023-09-19T07:26:29;8.38;;;1.60;;
48975;SDS011;34791;52.752;8.346;2023-09-19T07:28:54;11.45;;;1.50;;
48975;SDS011;34791;52.752;8.346;2023-09-19T07:31:19;8.75;;;1.58;;
48975;SDS011;34791;52.752;8.346;2023-09-19T07:33:45;7.50;;;1.40;;
48975;SDS011;34791;52.752;8.346;2023-09-19T07:36:10;10.25;;;1.80;;
48975;SDS011;34791;52.752;8.346;2023-09-19T07:38:38;8.05;;;1.80;;
48975;SDS011;34791;52.752;8.346;2023-09-19T07:41:03;5.53;;;1.20;;
48975;SDS011;34791;52.752;8.346;2023-09-19T07:43:30;7.28;;;1.55;;
48975;SDS011;34791;52.752;8.346;2023-09-19T07:45:55;7.78;;;1.55;;
48975;SDS011;34791;52.752;8.346;2023-09-19T07:48:20;7.28;;;1.50;;
48975;SDS011;34791;52.752;8.346;2023-09-19T07:50:46;7.18;;;1.45;;
48975;SDS011;34791;52.752;8.346;2023-09-19T07:53:11;7.60;;;1.40;;
48975;SDS011;34791;52.752;8.346;2023-09-19T07:55:40;10.82;;;2.10;;
48975;SDS011;34791;52.752;8.346;2023-09-19T07:58:06;5.90;;;1.55;;
48975;SDS011;34791;52.752;8.346;2023-09-19T08:00:32;8.07;;;1.67;;
48975;SDS011;34791;52.752;8.346;2023-09-19T08:02:59;6.35;;;1.52;;
48975;SDS011;34791;52.752;8.346;2023-09-19T08:05:25;9.00;;;1.80;;
48975;SDS011;34791;52.752;8.346;2023-09-19T08:07:51;7.40;;;1.90;;
48975;SDS011;34791;52.752;8.346;2023-09-19T08:10:17;8.75;;;1.88;;
48975;SDS011;34791;52.752;8.346;2023-09-19T08:12:45;7.75;;;1.88;;
48975;SDS011;34791;52.752;8.346;2023-09-19T08:15:17;9.40;;;1.55;;
48975;SDS011;34791;52.752;8.346;2023-09-19T08:17:42;5.93;;;1.20;;
48975;SDS011;34791;52.752;8.346;2023-09-19T08:20:08;9.52;;;1.50;;
48975;SDS011;34791;52.752;8.346;2023-09-19T08:22:40;9.50;;;1.58;;
48975;SDS011;34791;52.752;8.346;2023-09-19T08:25:05;8.55;;;1.80;;
48975;SDS011;34791;52.752;8.346;2023-09-19T08:27:32;6.15;;;1.27;;
48975;SDS011;34791;52.752;8.346;2023-09-19T08:29:57;6.45;;;1.30;;
48975;SDS011;34791;52.752;8.346;2023-09-19T08:32:22;6.53;;;1.60;;
48975;SDS011;34791;52.752;8.346;2023-09-19T08:34:49;6.57;;;1.45;;
48975;SDS011;34791;52.752;8.346;2023-09-19T08:37:14;7.57;;;1.77;;
48975;SDS011;34791;52.752;8.346;2023-09-19T08:39:40;6.07;;;1.13;;
48975;SDS011;34791;52.752;8.346;2023-09-19T08:42:06;7.38;;;1.40;;
48975;SDS011;34791;52.752;8.346;2023-09-19T08:44:35;6.40;;;1.65;;
48975;SDS011;34791;52.752;8.346;2023-09-19T08:47:06;6.68;;;1.48;;
48975;SDS011;34791;52.752;8.346;2023-09-19T08:49:36;7.95;;;1.40;;
48975;SDS011;34791;52.752;8.346;2023-09-19T08:52:06;6.95;;;1.60;;
48975;SDS011;34791;52.752;8.346;2023-09-19T08:54:34;12.50;;;1.73;;
48975;SDS011;34791;52.752;8.346;2023-09-19T08:57:00;8.20;;;1.52;;
48975;SDS011;34791;52.752;8.346;2023-09-19T08:59:27;7.10;;;1.40;;
48975;SDS011;34791;52.752;8.346;2023-09-19T09:01:54;6.50;;;1.35;;
48975;SDS011;34791;52.752;8.346;2023-09-19T09:04:20;5.35;;;1.45;;
48975;SDS011;34791;52.752;8.346;2023-09-19T09:06:47;6.75;;;1.30;;
48975;SDS011;34791;52.752;8.346;2023-09-19T09:09:15;8.50;;;1.05;;
48975;SDS011;34791;52.752;8.346;2023-09-19T09:11:40;7.97;;;1.75;;
48975;SDS011;34791;52.752;8.346;2023-09-19T09:14:06;8.77;;;1.42;;
48975;SDS011;34791;52.752;8.346;2023-09-19T09:16:32;6.65;;;1.48;;
48975;SDS011;34791;52.752;8.346;2023-09-19T09:18:57;7.68;;;1.70;;
48975;SDS011;34791;52.752;8.346;2023-09-19T09:21:24;8.13;;;1.45;;
48975;SDS011;34791;52.752;8.346;2023-09-19T09:23:49;8.35;;;2.13;;
48975;SDS011;34791;52.752;8.346;2023-09-19T09:26:16;5.53;;;1.30;;
48975;SDS011;34791;52.752;8.346;2023-09-19T09:28:44;5.55;;;1.45;;
48975;SDS011;34791;52.752;8.346;2023-09-19T09:31:23;9.43;;;1.50;;
48975;SDS011;34791;52.752;8.346;2023-09-19T09:33:55;7.95;;;1.70;;
48975;SDS011;34791;52.752;8.346;2023-09-19T09:36:36;7.55;;;1.38;;
48975;SDS011;34791;52.752;8.346;2023-09-19T09:41:41;8.18;;;1.50;;
48975;SDS011;34791;52.752;8.346;2023-09-19T09:44:16;10.63;;;2.60;;
48975;SDS011;34791;52.752;8.346;2023-09-19T09:46:45;6.43;;;1.40;;
48975;SDS011;34791;52.752;8.346;2023-09-19T09:49:26;6.85;;;1.58;;
48975;SDS011;34791;52.752;8.346;2023-09-19T09:55:00;6.03;;;1.60;;
48975;SDS011;34791;52.752;8.346;2023-09-19T09:57:30;9.63;;;1.80;;
48975;SDS011;34791;52.752;8.346;2023-09-19T09:59:56;6.63;;;1.30;;
48975;SDS011;34791;52.752;8.346;2023-09-19T10:02:41;8.48;;;1.50;;
48975;SDS011;34791;52.752;8.346;2023-09-19T10:05:16;8.60;;;1.90;;
48975;SDS011;34791;52.752;8.346;2023-09-19T10:07:44;5.57;;;1.40;;
48975;SDS011;34791;52.752;8.346;2023-09-19T10:10:14;9.35;;;1.70;;
48975;SDS011;34791;52.752;8.346;2023-09-19T10:12:48;7.88;;;1.45;;
48975;SDS011;34791;52.752;8.346;2023-09-19T10:15:18;6.50;;;1.38;;
48975;SDS011;34791;52.752;8.346;2023-09-19T10:17:46;8.23;;;1.63;;
48975;SDS011;34791;52.752;8.346;2023-09-19T10:20:17;7.72;;;1.80;;
48975;SDS011;34791;52.752;8.346;2023-09-19T10:22:57;9.93;;;1.70;;
48975;SDS011;34791;52.752;8.346;2023-09-19T10:25:27;8.63;;;1.88;;
48975;SDS011;34791;52.752;8.346;2023-09-19T10:30:22;11.38;;;2.38;;
48975;SDS011;34791;52.752;8.346;2023-09-19T10:32:50;7.70;;;1.40;;
48975;SDS011;34791;52.752;8.346;2023-09-19T10:35:21;9.27;;;1.90;;
48975;SDS011;34791;52.752;8.346;2023-09-19T10:37:47;7.97;;;1.75;;
48975;SDS011;34791;52.752;8.346;2023-09-19T10:40:15;5.18;;;1.40;;
48975;SDS011;34791;52.752;8.346;2023-09-19T10:42:41;7.82;;;1.55;;
48975;SDS011;34791;52.752;8.346;2023-09-19T10:45:07;11.85;;;1.98;;
48975;SDS011;34791;52.752;8.346;2023-09-19T10:47:38;7.77;;;1.60;;
48975;SDS011;34791;52.752;8.346;2023-09-19T10:50:03;8.82;;;1.67;;
48975;SDS011;34791;52.752;8.346;2023-09-19T10:52:30;6.07;;;1.50;;
48975;SDS011;34791;52.752;8.346;2023-09-19T10:54:58;14.30;;;2.58;;
48975;SDS011;34791;52.752;8.346;2023-09-19T10:57:26;6.07;;;1.40;;
48975;SDS011;34791;52.752;8.346;2023-09-19T11:00:06;8.55;;;1.77;;
48975;SDS011;34791;52.752;8.346;2023-09-19T11:05:32;8.55;;;1.65;;
48975;SDS011;34791;52.752;8.346;2023-09-19T11:07:58;9.10;;;1.88;;
48975;SDS011;34791;52.752;8.346;2023-09-19T11:10:47;9.60;;;1.90;;
48975;SDS011;34791;52.752;8.346;2023-09-19T11:26:44;9.07;;;2.22;;
48975;SDS011;34791;52.752;8.346;2023-09-19T11:29:25;7.78;;;1.98;;
48975;SDS011;34791;52.752;8.346;2023-09-19T11:31:54;6.72;;;1.65;;
48975;SDS011;34791;52.752;8.346;2023-09-19T11:37:01;10.85;;;2.00;;
48975;SDS011;34791;52.752;8.346;2023-09-19T11:39:29;5.35;;;1.35;;
48975;SDS011;34791;52.752;8.346;2023-09-19T11:41:54;9.93;;;1.65;;
48975;SDS011;34791;52.752;8.346;2023-09-19T11:46:55;9.65;;;2.00;;
48975;SDS011;34791;52.752;8.346;2023-09-19T11:49:26;8.38;;;1.70;;
48975;SDS011;34791;52.752;8.346;2023-09-19T11:51:54;8.57;;;1.95;;
48975;SDS011;34791;52.752;8.346;2023-09-19T11:54:20;10.13;;;1.92;;
48975;SDS011;34791;52.752;8.346;2023-09-19T11:56:50;8.40;;;1.55;;
48975;SDS011;34791;52.752;8.346;2023-09-19T11:59:28;9.48;;;2.03;;
48975;SDS011;34791;52.752;8.346;2023-09-19T12:02:01;6.53;;;1.55;;
48975;SDS011;34791;52.752;8.346;2023-09-19T12:04:36;6.13;;;1.40;;
48975;SDS011;34791;52.752;8.346;2023-09-19T12:07:09;11.07;;;2.20;;
48975;SDS011;34791;52.752;8.346;2023-09-19T12:09:47;6.57;;;2.20;;
48975;SDS011;34791;52.752;8.346;2023-09-19T12:12:26;4.90;;;1.27;;
48975;SDS011;34791;52.752;8.346;2023-09-19T12:15:00;6.53;;;1.42;;
48975;SDS011;34791;52.752;8.346;2023-09-19T12:17:38;7.80;;;1.45;;
48975;SDS011;34791;52.752;8.346;2023-09-19T12:20:07;7.07;;;1.42;;
48975;SDS011;34791;52.752;8.346;2023-09-19T12:22:45;9.55;;;2.33;;
48975;SDS011;34791;52.752;8.346;2023-09-19T12:25:11;8.20;;;1.80;;
48975;SDS011;34791;52.752;8.346;2023-09-19T12:27:41;8.15;;;2.00;;
48975;SDS011;34791;52.752;8.346;2023-09-19T12:30:08;11.70;;;2.30;;
48975;SDS011;34791;52.752;8.346;2023-09-19T12:32:34;8.68;;;2.00;;
48975;SDS011;34791;52.752;8.346;2023-09-19T12:35:00;8.15;;;1.85;;
48975;SDS011;34791;52.752;8.346;2023-09-19T12:37:32;6.63;;;2.03;;
48975;SDS011;34791;52.752;8.346;2023-09-19T12:40:04;9.70;;;2.00;;
48975;SDS011;34791;52.752;8.346;2023-09-19T12:42:42;8.13;;;2.10;;
48975;SDS011;34791;52.752;8.346;2023-09-19T12:45:07;8.75;;;1.90;;
48975;SDS011;34791;52.752;8.346;2023-09-19T12:47:34;7.88;;;1.70;;
48975;SDS011;34791;52.752;8.346;2023-09-19T12:50:07;7.35;;;1.63;;
48975;SDS011;34791;52.752;8.346;2023-09-19T12:52:39;5.65;;;1.20;;
48975;SDS011;34791;52.752;8.346;2023-09-19T12:55:05;7.30;;;1.55;;
48975;SDS011;34791;52.752;8.346;2023-09-19T12:57:32;5.43;;;1.52;;
48975;SDS011;34791;52.752;8.346;2023-09-19T13:00:00;6.78;;;1.67;;
48975;SDS011;34791;52.752;8.346;2023-09-19T13:02:25;9.98;;;1.88;;
48975;SDS011;34791;52.752;8.346;2023-09-19T13:04:54;4.70;;;1.33;;
48975;SDS011;34791;52.752;8.346;2023-09-19T13:07:43;6.47;;;1.63;;
48975;SDS011;34791;52.752;8.346;2023-09-19T13:10:11;8.60;;;1.75;;
48975;SDS011;34791;52.752;8.346;2023-09-19T13:12:41;9.93;;;1.40;;
48975;SDS011;34791;52.752;8.346;2023-09-19T13:15:11;9.98;;;1.95;;
48975;SDS011;34791;52.752;8.346;2023-09-19T13:17:42;9.13;;;1.80;;
48975;SDS011;34791;52.752;8.346;2023-09-19T13:20:19;7.88;;;1.42;;
48975;SDS011;34791;52.752;8.346;2023-09-19T13:22:49;6.30;;;1.50;;
48975;SDS011;34791;52.752;8.346;2023-09-19T13:25:19;9.00;;;1.98;;
48975;SDS011;34791;52.752;8.346;2023-09-19T13:27:45;7.25;;;1.80;;
48975;SDS011;34791;52.752;8.346;2023-09-19T13:30:11;8.50;;;1.55;;
48975;SDS011;34791;52.752;8.346;2023-09-19T13:32:37;8.95;;;1.92;;
48975;SDS011;34791;52.752;8.346;2023-09-19T13:35:04;7.72;;;1.70;;
48975;SDS011;34791;52.752;8.346;2023-09-19T13:37:30;6.45;;;1.55;;
48975;SDS011;34791;52.752;8.346;2023-09-19T13:39:55;4.05;;;1.10;;
48975;SDS011;34791;52.752;8.346;2023-09-19T13:42:22;4.72;;;1.23;;
48975;SDS011;34791;52.752;8.346;2023-09-19T13:44:48;9.23;;;1.92;;
48975;SDS011;34791;52.752;8.346;2023-09-19T13:47:14;9.55;;;1.58;;
48975;SDS011;34791;52.752;8.346;2023-09-19T13:49:40;8.18;;;1.60;;
48975;SDS011;34791;52.752;8.346;2023-09-19T13:52:05;6.53;;;1.48;;
48975;SDS011;34791;52.752;8.346;2023-09-19T13:54:32;5.57;;;1.13;;
48975;SDS011;34791;52.752;8.346;2023-09-19T13:56:57;5.30;;;1.33;;
48975;SDS011;34791;52.752;8.346;2023-09-19T13:59:23;7.35;;;1.80;;
48975;SDS011;34791;52.752;8.346;2023-09-19T14:01:49;6.40;;;1.23;;
48975;SDS011;34791;52.752;8.346;2023-09-19T14:04:14;5.15;;;1.00;;
48975;SDS011;34791;52.752;8.346;2023-09-19T14:06:41;9.25;;;2.00;;
48975;SDS011;34791;52.752;8.346;2023-09-19T14:09:06;9.73;;;2.00;;
48975;SDS011;34791;52.752;8.346;2023-09-19T14:11:32;8.00;;;1.77;;
48975;SDS011;34791;52.752;8.346;2023-09-19T14:13:58;12.77;;;1.80;;
48975;SDS011;34791;52.752;8.346;2023-09-19T14:16:23;3.28;;;0.90;;
48975;SDS011;34791;52.752;8.346;2023-09-19T14:18:49;6.32;;;1.40;;
48975;SDS011;34791;52.752;8.346;2023-09-19T14:21:14;6.53;;;1.20;;
48975;SDS011;34791;52.752;8.346;2023-09-19T14:23:40;7.25;;;1.48;;
48975;SDS011;34791;52.752;8.346;2023-09-19T14:26:06;7.50;;;1.27;;
48975;SDS011;34791;52.752;8.346;2023-09-19T14:28:32;6.18;;;1.48;;
48975;SDS011;34791;52.752;8.346;2023-09-19T14:31:03;7.65;;;1.63;;
48975;SDS011;34791;52.752;8.346;2023-09-19T14:33:28;4.13;;;1.30;;
48975;SDS011;34791;52.752;8.346;2023-09-19T14:35:54;8.05;;;1.65;;
48975;SDS011;34791;52.752;8.346;2023-09-19T14:38:19;3.30;;;1.10;;
48975;SDS011;34791;52.752;8.346;2023-09-19T14:40:44;7.30;;;1.40;;
48975;SDS011;34791;52.752;8.346;2023-09-19T14:43:09;7.40;;;1.45;;
48975;SDS011;34791;52.752;8.346;2023-09-19T14:45:37;6.10;;;1.40;;
48975;SDS011;34791;52.752;8.346;2023-09-19T14:48:03;5.10;;;1.10;;
48975;SDS011;34791;52.752;8.346;2023-09-19T14:50:30;4.70;;;1.25;;
48975;SDS011;34791;52.752;8.346;2023-09-19T14:52:55;4.45;;;1.25;;
48975;SDS011;34791;52.752;8.346;2023-09-19T14:55:21;8.90;;;1.88;;
48975;SDS011;34791;52.752;8.346;2023-09-19T14:57:51;8.18;;;1.33;;
48975;SDS011;34791;52.752;8.346;2023-09-19T15:00:17;6.72;;;1.52;;
48975;SDS011;34791;52.752;8.346;2023-09-19T15:02:43;10.55;;;1.75;;
48975;SDS011;34791;52.752;8.346;2023-09-19T15:05:10;6.47;;;1.38;;
48975;SDS011;34791;52.752;8.346;2023-09-19T15:07:36;6.85;;;1.38;;
48975;SDS011;34791;52.752;8.346;2023-09-19T15:10:05;4.72;;;1.30;;
48975;SDS011;34791;52.752;8.346;2023-09-19T15:12:32;4.82;;;1.40;;
48975;SDS011;34791;52.752;8.346;2023-09-19T15:14:58;7.80;;;1.95;;
48975;SDS011;34791;52.752;8.346;2023-09-19T15:17:23;7.85;;;1.20;;
48975;SDS011;34791;52.752;8.346;2023-09-19T15:19:50;6.80;;;1.33;;
48975;SDS011;34791;52.752;8.346;2023-09-19T15:22:15;7.40;;;1.50;;
48975;SDS011;34791;52.752;8.346;2023-09-19T15:24:40;7.32;;;1.88;;
48975;SDS011;34791;52.752;8.346;2023-09-19T15:27:05;5.97;;;1.40;;
48975;SDS011;34791;52.752;8.346;2023-09-19T15:29:31;5.70;;;1.25;;
48975;SDS011;34791;52.752;8.346;2023-09-19T15:31:56;6.18;;;1.15;;
48975;SDS011;34791;52.752;8.346;2023-09-19T15:34:27;8.75;;;1.40;;